Dates à venir

Date Artiste Spectacle Lieu Ville Pays
2020-10-01 00:00:00-2020-10-01 00:00:002020-10-01 00:00:00 2020-10-01 00:00:00 The Tiger Lillies *The Tiger Lillies in Concert Herodion Theatre Athens Greece
2020-10-15 00:00:00-2020-10-23 00:00:002020-10-15 00:00:00 2020-10-23 00:00:00 Akram Khan Company *Chotto Xenos Theatre de la Ville Paris France
2021-02-11 00:00:00-2021-02-11 00:00:002021-02-11 00:00:00 2021-02-11 00:00:00 Hotel Pro Forma Opération: Orfeo The Concert Hall Aarhus Aarhus Denmark
2021-06-01 00:00:00-2021-06-12 00:00:002021-06-01 00:00:00 2021-06-12 00:00:00 Hotel Pro Forma AMDUAT. An oxygen machine Teater Republique Copenhagen Denmark
2021-06-02 00:00:00-2021-06-05 00:00:002021-06-02 00:00:00 2021-06-05 00:00:00 Hotel Pro Forma Opération: Orfeo Skuepilhuset, Det Kongelige Teater Copenhagen Denmark

Past events

Dates passées

Date Artiste Spectacle Lieu Ville Pays
2020-02-28 00:00:00-2020-03-01 00:00:002020-02-28 00:00:00 2020-03-01 00:00:00 Akram Khan Company *Chotto Xenos Old Vic Bristol Bristol UK
2020-02-21 00:00:00-2020-02-21 00:00:002020-02-21 00:00:00 2020-02-21 00:00:00 Akram Khan Company Outwitting the Devil Espace des Arts - Scène Nationale de Chalon-sur-Saône Chalon-sur-Saône France
2020-02-21 00:00:00-2020-02-22 00:00:002020-02-21 00:00:00 2020-02-22 00:00:00 Akram Khan Company *Chotto Xenos Dance East Ipswich Ipswich UK
2020-02-18 00:00:00-2020-02-18 00:00:002020-02-18 00:00:00 2020-02-18 00:00:00 Akram Khan Company Outwitting the Devil Ma Scène Nationale Pays de Montbéliard Montbéliard France
2020-02-12 00:00:00-2020-02-13 00:00:002020-02-12 00:00:00 2020-02-13 00:00:00 Wim Vandekeybus *TRACES MC2 Grenoble France
2020-02-08 00:00:00-2020-02-09 00:00:002020-02-08 00:00:00 2020-02-09 00:00:00 Wim Vandekeybus *TRACES Bellini Theater Napoli Italy
2020-02-06 00:00:00-2020-02-07 00:00:002020-02-06 00:00:00 2020-02-07 00:00:00 Wim Vandekeybus *TrapTown Les Théâtres de la Ville de Luxembourg Luxembourg Luxembourg
2020-01-31 00:00:00-2020-02-01 00:00:002020-01-31 00:00:00 2020-02-01 00:00:00 Dada Masilo Dada Masilo's GISELLE Centro Culural de Belem Lisbonne Portugal
2020-01-29 00:00:00-2020-01-30 00:00:002020-01-29 00:00:00 2020-01-30 00:00:00 Wim Vandekeybus *TRACES Stuk Leuven Belgium
2020-01-25 00:00:00-2020-01-28 00:00:002020-01-25 00:00:00 2020-01-28 00:00:00 Dada Masilo Dada Masilo's GISELLE Theater Institute Gaetano Fraschini Pavia Italie
2020-01-21 00:00:00-2020-01-21 00:00:002020-01-21 00:00:00 2020-01-21 00:00:00 Wim Vandekeybus *TRACES Les Salins Scène Nationale de Martigues Martigues France
2020-01-17 00:00:00-2020-01-17 00:00:002020-01-17 00:00:00 2020-01-17 00:00:00 Akram Khan Company Outwitting the Devil Théâtre de l'Olivier Istres France
2020-01-14 00:00:00-2020-01-16 00:00:002020-01-14 00:00:00 2020-01-16 00:00:00 Wim Vandekeybus *TRACES La Rose des Vents Scène National Lille Villeneuve d'Ascq France
2020-01-14 00:00:00-2020-01-14 00:00:002020-01-14 00:00:00 2020-01-14 00:00:00 Akram Khan Company Outwitting the Devil Théâtres en Dracénie Draguignan France
2020-01-07 00:00:00-2020-01-08 00:00:002020-01-07 00:00:00 2020-01-08 00:00:00 Akram Khan Company Outwitting the Devil La Comédie de Clermont Ferrand Clermont Ferrand France
2019-12-13 00:00:00-2019-12-18 00:00:002019-12-13 00:00:00 2019-12-18 00:00:00 Wim Vandekeybus *TRACES KVS Brussels Belgium
2019-12-10 00:00:00-2019-12-10 00:00:002019-12-10 00:00:00 2019-12-10 00:00:00 Wim Vandekeybus *TRACES CCHa - cultuurcentrum Hasselt Hasselt Belgium
2019-12-10 00:00:00-2019-12-11 00:00:002019-12-10 00:00:00 2019-12-11 00:00:00 Akram Khan Company Outwitting the Devil Central Le Théâtre La Louvière Belgium
2019-12-08 00:00:00-2019-12-08 00:00:002019-12-08 00:00:00 2019-12-08 00:00:00 Wim Vandekeybus *TRACES December Dance Brugge Belgium
2019-12-06 00:00:00-2019-12-06 00:00:002019-12-06 00:00:00 2019-12-06 00:00:00 Dada Masilo Dada Masilo's GISELLE Temporada Alta Girona Spain
2019-12-04 00:00:00-2019-12-07 00:00:002019-12-04 00:00:00 2019-12-07 00:00:00 Akram Khan Company Outwitting the Devil Théâtre de Namur Namur Belgium
2019-12-03 00:00:00-2019-12-03 00:00:002019-12-03 00:00:00 2019-12-03 00:00:00 Dada Masilo Dada Masilo's GISELLE L'Avant Seine - Colombes Colombes France
2019-11-29 00:00:00-2019-11-30 00:00:002019-11-29 00:00:00 2019-11-30 00:00:00 Akram Khan Company Outwitting the Devil Grand Théâtre Aix-en-Provence France
2019-11-29 00:00:00-2019-11-30 00:00:002019-11-29 00:00:00 2019-11-30 00:00:00 Dada Masilo Dada Masilo's GISELLE Theatre Cornouaille Quimper France
2019-11-26 00:00:00-2019-11-26 00:00:002019-11-26 00:00:00 2019-11-26 00:00:00 Dada Masilo Dada Masilo's GISELLE Equilibre Nuithonie Villars-sur-Glâne Switerland
2019-11-16 00:00:00-2019-11-18 00:00:002019-11-16 00:00:00 2019-11-18 00:00:00 Wim Vandekeybus *TrapTown Istanbul Turkey
2019-11-15 00:00:00-2019-11-16 00:00:002019-11-15 00:00:00 2019-11-16 00:00:00 Hotel Pro Forma NEOARTIC World Cultures Festival, Kwai Tsing Theatre Auditorium Hong Kong China
2019-11-01 00:00:00-2019-11-02 00:00:002019-11-01 00:00:00 2019-11-02 00:00:00 Brokentalkers Woman Undone Town Hall Theatre Galway Ireland
2019-11-01 00:00:00-2019-11-02 00:00:002019-11-01 00:00:00 2019-11-02 00:00:00 Dada Masilo Dada Masilo's GISELLE The Marlowe Canterbury UK
2019-11-01 00:00:00-2019-11-02 00:00:002019-11-01 00:00:00 2019-11-02 00:00:00 Akram Khan Company Outwitting the Devil Dunstan Playhouse, OzAsia Festival Adelaide Australia
2019-10-29 00:00:00-2019-10-29 00:00:002019-10-29 00:00:00 2019-10-29 00:00:00 Brokentalkers Woman Undone Pavilion Theatre, Dun Laoghaire Dublin Ireland
2019-10-29 00:00:00-2019-10-30 00:00:002019-10-29 00:00:00 2019-10-30 00:00:00 Dada Masilo Dada Masilo's GISELLE Brighton Dome Brighton UK
2019-10-25 00:00:00-2019-10-26 00:00:002019-10-25 00:00:00 2019-10-26 00:00:00 Dada Masilo Dada Masilo's GISELLE Milton Keynes Theatre Milton Keynes UK
2019-10-24 00:00:00-2019-10-24 00:00:002019-10-24 00:00:00 2019-10-24 00:00:00 Wim Vandekeybus *TrapTown CC de Meent Alsemberg Belgium
2019-10-22 00:00:00-2019-10-24 00:00:002019-10-22 00:00:00 2019-10-24 00:00:00 Brokentalkers Woman Undone The Everyman Cork Ireland
2019-10-22 00:00:00-2019-10-23 00:00:002019-10-22 00:00:00 2019-10-23 00:00:00 Dada Masilo Dada Masilo's GISELLE The Lowry Salford Quays UK
2019-10-18 00:00:00-2019-10-18 00:00:002019-10-18 00:00:00 2019-10-18 00:00:00 William Kentridge Winterreise Kyoto Art Theater Shunjuza Kyoto Japan
2019-10-15 00:00:00-2019-10-16 00:00:002019-10-15 00:00:00 2019-10-16 00:00:00 Dada Masilo Dada Masilo's GISELLE Hippodrome Birmingham UK
2019-10-11 00:00:00-2019-10-11 00:00:002019-10-11 00:00:00 2019-10-11 00:00:00 Wim Vandekeybus *TrapTown Forbach France
2019-10-11 00:00:00-2019-10-11 00:00:002019-10-11 00:00:00 2019-10-11 00:00:00 The Tiger Lillies *One Penny Opera L'Onde Théâtre Centre d'Art Vélizy-Villacoublay France
2019-10-11 00:00:00-2019-10-12 00:00:002019-10-11 00:00:00 2019-10-12 00:00:00 Dada Masilo Dada Masilo's GISELLE Alhambra Theatre Bradford UK
2019-10-10 00:00:00-2019-10-12 00:00:002019-10-10 00:00:00 2019-10-12 00:00:00 Wim Vandekeybus Go Figure Out Yourself Forbach France
2019-10-08 00:00:00-2019-10-09 00:00:002019-10-08 00:00:00 2019-10-09 00:00:00 Akram Khan Company Outwitting the Devil Dance lnversion Festival Moscow Russia
2019-10-08 00:00:00-2019-10-09 00:00:002019-10-08 00:00:00 2019-10-09 00:00:00 Dada Masilo Dada Masilo's GISELLE Theatre Royal and Royal Concert Hall Nottingham UK
2019-10-04 00:00:00-2019-10-05 00:00:002019-10-04 00:00:00 2019-10-05 00:00:00 Dada Masilo Dada Masilo's GISELLE Sadler's Wells London UK
2019-09-28 00:00:00-2019-09-28 00:00:002019-09-28 00:00:00 2019-09-28 00:00:00 Wim Vandekeybus *TrapTown C-Mine Genk Belgium
2019-09-25 00:00:00-2019-09-25 00:00:002019-09-25 00:00:00 2019-09-25 00:00:00 Wim Vandekeybus *TrapTown Westrand Dilbeek Belgium
2019-09-24 00:00:00-2019-09-25 00:00:002019-09-24 00:00:00 2019-09-25 00:00:00 Akram Khan Company Outwitting the Devil Düsseldorf Festival Düsseldorf Germany
2019-09-14 00:00:00-2019-09-14 00:00:002019-09-14 00:00:00 2019-09-14 00:00:00 Brokentalkers *The Examination Dublin Fringe Festival Dublin Ireland
2019-09-12 00:00:00-2019-09-12 00:00:002019-09-12 00:00:00 2019-09-12 00:00:00 Brokentalkers *The Examination Dublin Fringe Festival Dublin Ireland
2019-09-11 00:00:00-2019-09-20 00:00:002019-09-11 00:00:00 2019-09-20 00:00:00 Akram Khan Company Outwitting the Devil Théâtre de la Ville Paris France
2019-09-11 00:00:00-2019-09-11 00:00:002019-09-11 00:00:00 2019-09-11 00:00:00 Brokentalkers *The Examination Dublin Fringe Festival Dublin Ireland
2019-09-10 00:00:00-2019-09-15 00:00:002019-09-10 00:00:00 2019-09-15 00:00:00 William Kentridge SIBYL Teatro Dell'Opera Di Roma (Teatro Costanzi) Roma Italy
2019-09-07 00:00:00-2019-09-10 00:00:002019-09-07 00:00:00 2019-09-10 00:00:00 Brokentalkers *The Examination Dublin Fringe Festival Dublin Ireland
2019-09-06 00:00:00-2019-09-07 00:00:002019-09-06 00:00:00 2019-09-07 00:00:00 Akram Khan Company Outwitting the Devil Theater Rotterdam Rotterdam Netherlands
2019-09-03 00:00:00-2019-09-03 00:00:002019-09-03 00:00:00 2019-09-03 00:00:00 William Kentridge Paper Music Teatro Jorge Eliécer Gaitán Bogota Colombia
2019-09-01 00:00:00-2019-09-01 00:00:002019-09-01 00:00:00 2019-09-01 00:00:00 William Kentridge Ursonate Zürcher Theaterspektakel Zurich Switzerland
2019-08-31 00:00:00-2019-08-31 00:00:002019-08-31 00:00:00 2019-08-31 00:00:00 William Kentridge Ursonate Zürcher Theaterspektakel Zurich Switzerland
2019-08-31 00:00:00-2019-08-31 00:00:002019-08-31 00:00:00 2019-08-31 00:00:00 William Kentridge Paper Music Teatro Santander BGA Bucaramanga Colombia
2019-08-28 00:00:00-2019-08-29 00:00:002019-08-28 00:00:00 2019-08-29 00:00:00 Akram Khan Company Outwitting the Devil Internationaal Theater Amsterdam Amsterdam Netherlands
2019-08-20 00:00:00-2019-08-25 00:00:002019-08-20 00:00:00 2019-08-25 00:00:00 Brokentalkers *The Examination Gilded Balloon Teviot Edinburgh Scotland
2019-08-13 00:00:00-2019-08-18 00:00:002019-08-13 00:00:00 2019-08-18 00:00:00 Brokentalkers *The Examination Gilded Balloon Teviot Edinburgh Scotland
2019-08-08 00:00:00-2019-08-08 00:00:002019-08-08 00:00:00 2019-08-08 00:00:00 William Kentridge Winterreise Salzburger Festspiele Salzburg Austria
2019-08-05 00:00:00-2019-08-07 00:00:002019-08-05 00:00:00 2019-08-07 00:00:00 Wim Vandekeybus Go Figure Out Yourself Impulstanz Vienna Austria
2019-07-17 00:00:00-2019-07-21 00:00:002019-07-17 00:00:00 2019-07-21 00:00:00 Akram Khan Company Outwitting the Devil Festival d'Avignon Avignon France
2019-07-13 00:00:00-2019-07-14 00:00:002019-07-13 00:00:00 2019-07-14 00:00:00 Akram Khan Company Outwitting the Devil COLOURS International Dance Festival 2019 Stuttgart Germany
2019-06-27 00:00:00-2019-06-29 00:00:002019-06-27 00:00:00 2019-06-29 00:00:00 Brett Bailey SAMSON National Arts Festival Grahamstown South Africa
2019-06-16 00:00:00-2019-06-16 00:00:002019-06-16 00:00:00 2019-06-16 00:00:00 William Kentridge Paper Music Holland Festival Amsterdam Holland
2019-06-08 00:00:00-2019-06-09 00:00:002019-06-08 00:00:00 2019-06-09 00:00:00 William Kentridge Ursonate Holland Festival Amsterdam Holland
2019-05-29 00:00:00-2019-05-31 00:00:002019-05-29 00:00:00 2019-05-31 00:00:00 William Kentridge The Head & the Load Holland Festival Amsterdam Holland
2019-05-18 00:00:00-2019-05-19 00:00:002019-05-18 00:00:00 2019-05-19 00:00:00 Wim Vandekeybus Go Figure Out Yourself Festival Cluny Danse Cluny France
2019-05-10 00:00:00-2019-05-10 00:00:002019-05-10 00:00:00 2019-05-10 00:00:00 Wim Vandekeybus Go Figure Out Yourself Valencia Spain
2019-04-30 00:00:00-2019-04-30 00:00:002019-04-30 00:00:00 2019-04-30 00:00:00 Wim Vandekeybus *TrapTown Le Quai Angers France
2019-04-25 00:00:00-2019-04-27 00:00:002019-04-25 00:00:00 2019-04-27 00:00:00 Wim Vandekeybus Go Figure Out Yourself Cultuurcentrum de Werf Aalst Belgium
2019-04-25 00:00:00-2019-04-28 00:00:002019-04-25 00:00:00 2019-04-28 00:00:00 Hotel Pro Forma *GILGAMESH Ny Carlsberg Glyptotek Copenhagen Denmark
2019-04-23 00:00:00-2019-04-23 00:00:002019-04-23 00:00:00 2019-04-23 00:00:00 Wim Vandekeybus Go Figure Out Yourself Maison de la Culture Tournai Belgium
2019-04-18 00:00:00-2019-04-19 00:00:002019-04-18 00:00:00 2019-04-19 00:00:00 William Kentridge IL RITORNO D'ULISSE Opéra Royal Versailles France
2019-04-18 00:00:00-2019-04-19 00:00:002019-04-18 00:00:00 2019-04-19 00:00:00 Handspring Puppet Co. Il Ritorno d'Ulisse Opéra Royal Versailles France
2019-04-18 00:00:00-2019-04-19 00:00:002019-04-18 00:00:00 2019-04-19 00:00:00 William Kentridge Il Ritorno d'Ulisse Opéra Royal Versailles France
2019-04-16 00:00:00-2019-04-16 00:00:002019-04-16 00:00:00 2019-04-16 00:00:00 Wim Vandekeybus *TrapTown Congress Innsbruck / Osterfestival Tirol Innsbruck Austria
2019-04-11 00:00:00-2019-04-14 00:00:002019-04-11 00:00:00 2019-04-14 00:00:00 Hotel Pro Forma *GILGAMESH Ny Carlsberg Glyptotek Copenhagen Denmark
2019-04-09 00:00:00-2019-04-10 00:00:002019-04-09 00:00:00 2019-04-10 00:00:00 Dada Masilo Dada Masilo's GISELLE Belgrade Dance Festival Belgrade Serbie
2019-04-07 00:00:00-2019-04-07 00:00:002019-04-07 00:00:00 2019-04-07 00:00:00 Wim Vandekeybus Go Figure Out Yourself Innsbruck Austria
2019-04-06 00:00:00-2019-04-06 00:00:002019-04-06 00:00:00 2019-04-06 00:00:00 Dada Masilo Dada Masilo's GISELLE Les Bords de Scènes Juvisy-sur-Orge France
2019-04-05 00:00:00-2019-04-07 00:00:002019-04-05 00:00:00 2019-04-07 00:00:00 Hotel Pro Forma *GILGAMESH Ny Carlsberg Glyptotek Copenhagen Denmark
2019-04-05 00:00:00-2019-04-05 00:00:002019-04-05 00:00:00 2019-04-05 00:00:00 Wim Vandekeybus *TrapTown De Warande Turnhout Belgium
2019-04-04 00:00:00-2019-04-04 00:00:002019-04-04 00:00:00 2019-04-04 00:00:00 Hotel Pro Forma *GILGAMESH Ny Carlsberg Glyptotek Copenhagen Denmark
2019-04-02 00:00:00-2019-04-03 00:00:002019-04-02 00:00:00 2019-04-03 00:00:00 Dada Masilo Dada Masilo's GISELLE Théâtre de Sète et du Bassin de Thau Sète France
2019-03-29 00:00:00-2019-04-03 00:00:002019-03-29 00:00:00 2019-04-03 00:00:00 William Kentridge IL RITORNO D'ULISSE Maison de la Danse Lyon France
2019-03-29 00:00:00-2019-04-03 00:00:002019-03-29 00:00:00 2019-04-03 00:00:00 Handspring Puppet Co. Il Ritorno d'Ulisse Maison de la Danse Lyon France
2019-03-29 00:00:00-2019-04-03 00:00:002019-03-29 00:00:00 2019-04-03 00:00:00 William Kentridge Il Ritorno d'Ulisse Maison de la Danse Lyon France
2019-03-27 00:00:00-2019-03-29 00:00:002019-03-27 00:00:00 2019-03-29 00:00:00 Dada Masilo Dada Masilo's GISELLE Comédie de Valence Valence France
2019-03-23 00:00:00-2019-03-24 00:00:002019-03-23 00:00:00 2019-03-24 00:00:00 William Kentridge IL RITORNO D'ULISSE Opéra de Vichy Vichy France
2019-03-23 00:00:00-2019-03-24 00:00:002019-03-23 00:00:00 2019-03-24 00:00:00 Handspring Puppet Co. Il Ritorno d'Ulisse Opéra de Vichy Vichy France
2019-03-23 00:00:00-2019-03-24 00:00:002019-03-23 00:00:00 2019-03-24 00:00:00 William Kentridge Il Ritorno d'Ulisse Opéra de Vichy Vichy France
2019-03-19 00:00:00-2019-03-19 00:00:002019-03-19 00:00:00 2019-03-19 00:00:00 Dada Masilo Dada Masilo's GISELLE Théâtre de Beausobre - Festival Diabolo Morges Suisse
2019-03-15 00:00:00-2019-03-16 00:00:002019-03-15 00:00:00 2019-03-16 00:00:00 Dada Masilo Dada Masilo's GISELLE Dansens Hus Stockholm Suède
2019-03-12 00:00:00-2019-03-12 00:00:002019-03-12 00:00:00 2019-03-12 00:00:00 Dada Masilo Dada Masilo's GISELLE schrit_tmacher festival Heerlen Pay Bas
2019-03-08 00:00:00-2019-03-10 00:00:002019-03-08 00:00:00 2019-03-10 00:00:00 Brett Bailey SAMSON US Woordfees 2019 Stellenbosch South Africa
2019-03-01 00:00:00-2019-03-03 00:00:002019-03-01 00:00:00 2019-03-03 00:00:00 Dada Masilo Dada Masilo's GISELLE Perth International Arts Festival Perth Australie
2019-02-26 00:00:00-2019-03-10 00:00:002019-02-26 00:00:00 2019-03-10 00:00:00 The Tiger Lillies Le Palais Hanté d'Edgar Allan Poe RCC Fringe Adelaide Australia
2019-02-14 00:00:00-2019-02-16 00:00:002019-02-14 00:00:00 2019-02-16 00:00:00 Wim Vandekeybus *TrapTown deSingel Antwerp Belgium
2019-02-13 00:00:00-2019-02-16 00:00:002019-02-13 00:00:00 2019-02-16 00:00:00 Hotel Pro Forma NEOARTIC The Kennedy Center Washington USA
2019-02-07 00:00:00-2019-02-10 00:00:002019-02-07 00:00:00 2019-02-10 00:00:00 William Kentridge IL RITORNO D'ULISSE Teatro Massimo Palermo Italy
2019-02-07 00:00:00-2019-02-10 00:00:002019-02-07 00:00:00 2019-02-10 00:00:00 Handspring Puppet Co. Il Ritorno d'Ulisse Teatro Massimo Palermo Italy
2019-02-07 00:00:00-2019-02-10 00:00:002019-02-07 00:00:00 2019-02-10 00:00:00 William Kentridge Il Ritorno d'Ulisse Teatro Massimo Palerme Italie
2019-02-01 00:00:00-2019-02-02 00:00:002019-02-01 00:00:00 2019-02-02 00:00:00 Wim Vandekeybus *TrapTown Schauspiel Cologne Cologne Germany
2019-01-29 00:00:00-2019-01-29 00:00:002019-01-29 00:00:00 2019-01-29 00:00:00 Wim Vandekeybus *TrapTown Opéra de Rouen Normandie Rouen France
2019-01-25 00:00:00-2019-01-25 00:00:002019-01-25 00:00:00 2019-01-25 00:00:00 Wim Vandekeybus *TrapTown Cultuurcentrum Bruges Brugge Belgium
2019-01-22 00:00:00-2019-01-23 00:00:002019-01-22 00:00:00 2019-01-23 00:00:00 Wim Vandekeybus *TrapTown Toneelschuur Haarlem Haarlem The Netherlands
2019-01-17 00:00:00-2019-01-19 00:00:002019-01-17 00:00:00 2019-01-19 00:00:00 Wim Vandekeybus Go Figure Out Yourself Westrand Dilbeek Belgium
2018-12-21 00:00:00-2018-12-21 00:00:002018-12-21 00:00:00 2018-12-21 00:00:00 Wim Vandekeybus *TrapTown Cultuurcentrum Zwaneberg Heist-op-den-Berg Belgium
2018-12-18 00:00:00-2018-12-21 00:00:002018-12-18 00:00:00 2018-12-21 00:00:00 Dada Masilo Dada Masilo's GISELLE La Villette Paris France
2018-12-18 00:00:00-2018-12-18 00:00:002018-12-18 00:00:00 2018-12-18 00:00:00 Wim Vandekeybus *TrapTown Schouwburg Kortrijk Kortrijk Belgium
2018-12-13 00:00:00-2018-12-15 00:00:002018-12-13 00:00:00 2018-12-15 00:00:00 Dada Masilo Dada Masilo's GISELLE Ballet Preljocaj - Pavillon Noir Aix-en-Provence France
2018-12-04 00:00:00-2018-12-15 00:00:002018-12-04 00:00:00 2018-12-15 00:00:00 William Kentridge The Head & the Load Park Avenue Armory New York US
2018-11-29 00:00:00-2018-11-29 00:00:00 Brokentalkers Woman Undone Mermaid Arts Centre Bray Irlande
2018-11-27 00:00:00-2018-11-29 00:00:002018-11-27 00:00:00 2018-11-29 00:00:00 Wim Vandekeybus *TrapTown 30CC Schouwburg Louvain Belgique
2018-11-26 00:00:00-2018-11-26 00:00:00 Dada Masilo Dada Masilo's GISELLE Festival "Diaghilev. P.S." St Petersburg Russie
2018-11-21 00:00:00-2018-11-22 00:00:002018-11-21 00:00:00 2018-11-22 00:00:00 Dada Masilo Dada Masilo's GISELLE La Rampe La Ponatière Echirolles France
2018-11-17 00:00:00-2018-11-24 00:00:002018-11-17 00:00:00 2018-11-24 00:00:00 Brokentalkers Woman Undone Project Arts Centre Dublin Irlande
2018-11-13 00:00:00-2018-11-16 00:00:002018-11-13 00:00:00 2018-11-16 00:00:00 Dada Masilo Dada Masilo's GISELLE Bonlieu Scène Nationale Annecy France
2018-11-10 00:00:00-2018-11-10 00:00:00 Dada Masilo Dada Masilo's GISELLE Le Carré Sainte Maxime France
2018-11-09 00:00:00-2018-11-10 00:00:002018-11-09 00:00:00 2018-11-10 00:00:00 Wim Vandekeybus *TrapTown Dampfzentrale Bern Bern Swiss
2018-11-03 00:00:00-2018-11-04 00:00:002018-11-03 00:00:00 2018-11-04 00:00:00 Wim Vandekeybus *TrapTown Stadsschouwburg Amsterdam Amsterdam Pays Bas
2018-10-20 00:00:00-2018-10-20 00:00:00 Wim Vandekeybus *TrapTown KVS Bruxelles Belgique
2018-10-20 00:00:00-2018-10-31 00:00:002018-10-20 00:00:00 2018-10-31 00:00:00 Wim Vandekeybus *TrapTown KVS Brussels Bruxelles Belgique
2018-10-17 00:00:00-2018-10-19 00:00:002018-10-17 00:00:00 2018-10-19 00:00:00 Dada Masilo Dada Masilo's GISELLE Théâtre de Namur Namur Belgique
2018-10-11 00:00:00-2018-10-11 00:00:00 Dada Masilo Dada Masilo's GISELLE Théâtre des Salins Martigues France
2018-10-03 00:00:00-2018-10-07 00:00:002018-10-03 00:00:00 2018-10-07 00:00:00 Dada Masilo Dada Masilo's GISELLE Maison de la Danse Lyon France
2018-09-25 00:00:00-2018-09-29 00:00:002018-09-25 00:00:00 2018-09-29 00:00:00 Dada Masilo Dada Masilo's GISELLE Danse, Danse Montréal Canada
2018-09-21 00:00:00-2018-09-21 00:00:00 Dada Masilo Dada Masilo's GISELLE Williams College Williamstown US
2018-09-20 00:00:00-2018-09-20 00:00:00 The Tiger Lillies Le Palais Hanté d'Edgar Allan Poe Marjanishvili Theater Tbilisi Géorgie
2018-08-28 00:00:00-2018-08-30 00:00:002018-08-28 00:00:00 2018-08-30 00:00:00 The Tiger Lillies Le Palais Hanté d'Edgar Allan Poe Southbank Londres Royaume-Uni
2018-08-09 00:00:00-2018-09-12 00:00:002018-08-09 00:00:00 2018-09-12 00:00:00 William Kentridge The Head & the Load Ruhrtriennale Bochum Allemagne
2018-07-21 00:00:00-2018-07-21 00:00:00 Wim Vandekeybus Go Figure Out Yourself Deltebre Dansa Deltebre Espagne
2018-07-15 00:00:00-2018-07-15 00:00:00 Wim Vandekeybus Go Figure Out Yourself Kalamata Dance Festival Athènes Grèce
2018-07-11 00:00:00-2018-07-15 00:00:002018-07-11 00:00:00 2018-07-15 00:00:00 William Kentridge The Head & the Load TATE MODERN Londres Royaume-Uni
2018-05-24 00:00:00-2018-05-25 00:00:002018-05-24 00:00:00 2018-05-25 00:00:00 Hotel Pro Forma NEOARTIC Southbank Londres Royaume-Uni
2018-05-22 00:00:00-2018-05-25 00:00:002018-05-22 00:00:00 2018-05-25 00:00:00 Wim Vandekeybus Go Figure Out Yourself STUK Louvain Belgique
2018-05-10 00:00:00-2018-05-12 00:00:002018-05-10 00:00:00 2018-05-12 00:00:00 Wim Vandekeybus Go Figure Out Yourself Archa Theater Prague Prague Republique Tchèque
2018-04-28 00:00:00-2018-04-28 00:00:00 Wim Vandekeybus Go Figure Out Yourself Cultuur Centrum Brugge Bruges Belgique
2018-04-18 00:00:00-2018-04-18 00:00:00 Dada Masilo Dada Masilo's GISELLE Quick Center for the Arts Fairfield, Conneticut Etats-Unis
2018-04-14 00:00:00-2018-04-14 00:00:00 Hotel Pro Forma NEOARTIC Place Des Arts Montréal Canada
2018-04-12 00:00:00-2018-04-14 00:00:002018-04-12 00:00:00 2018-04-14 00:00:00 Dada Masilo Dada Masilo's GISELLE Wallis Annenberg Center for the Performing Arts Beverly Hills Etats-Unis
2018-04-04 00:00:00-2018-04-05 00:00:002018-04-04 00:00:00 2018-04-05 00:00:00 The Tiger Lillies Le Palais Hanté d'Edgar Allan Poe Théâtre de l'Union Limoges France
2018-04-03 00:00:00-2018-04-08 00:00:002018-04-03 00:00:00 2018-04-08 00:00:00 Dada Masilo Dada Masilo's GISELLE The Joyce Theater New York Etats-Unis
2018-03-30 00:00:00-2018-03-31 00:00:002018-03-30 00:00:00 2018-03-31 00:00:00 Dada Masilo Dada Masilo's GISELLE Hopkins Center for the Arts Dartmouth Etats-Unis
2018-03-22 00:00:00-2018-03-24 00:00:002018-03-22 00:00:00 2018-03-24 00:00:00 Wim Vandekeybus Go Figure Out Yourself Les Brigittines Bruxelles Belgique
2018-03-21 00:00:00-2018-03-21 00:00:00 Hotel Pro Forma NEOARTIC Chassé Théâtre Breda Pays Bas
2018-02-14 00:00:00-2018-02-14 00:00:00 The Tiger Lillies Le Palais Hanté d'Edgar Allan Poe Théâtre Molière, scène nationale de Sète et du Bassin de Thau Sète France
2017-11-30 00:00:00-2017-12-01 00:00:002017-11-30 00:00:00 2017-12-01 00:00:00 The Tiger Lillies Ballad of Sexual Dependency Le Maillon Strasbourg France
2017-11-28 00:00:00-2017-11-28 00:00:00 Hotel Pro Forma NEOARTIC Théâtre de Nîmes Nîmes France
2017-11-24 00:00:00-2017-11-24 00:00:00 Hotel Pro Forma WAR SUM UP Théâtre de Caen, Festival Les Boréales Caen France
2017-11-21 00:00:00-2017-11-21 00:00:00 Hotel Pro Forma NEOARTIC Cultuurcentrum Hasselt Hasselt Belgique
2017-11-21 00:00:00-2017-11-21 00:00:00 The Tiger Lillies Le Palais Hanté d'Edgar Allan Poe Ayuntamiento De Vitoria Vitoria Espagne
2017-11-18 00:00:00-2017-11-18 00:00:00 The Tiger Lillies Le Palais Hanté d'Edgar Allan Poe Carré-Colonne Saint Médard en Jalles France
2017-11-15 00:00:00-2017-11-15 00:00:00 The Tiger Lillies Le Palais Hanté d'Edgar Allan Poe Teatro Central Seville Espagne
2017-11-12 00:00:00-2017-11-12 00:00:00 The Tiger Lillies Le Palais Hanté d'Edgar Allan Poe Teatro Alhambr Grenade Espagne
2017-11-10 00:00:00-2017-11-10 00:00:00 The Tiger Lillies Le Palais Hanté d'Edgar Allan Poe Teatro Circo Murcia Murcia Espagne
2017-11-01 00:00:00-2017-11-04 00:00:002017-11-01 00:00:00 2017-11-04 00:00:00 William Kentridge A Guided Tour of the Exhibition: For Soprano and Handbag The Print Room Londres Royaume-Uni
2017-10-18 00:00:00-2017-10-19 00:00:002017-10-18 00:00:00 2017-10-19 00:00:00 The Tiger Lillies Le Palais Hanté d'Edgar Allan Poe Théâtre Angoulême Scène Nationale Angoulême France
2017-09-29 00:00:00-2017-09-29 00:00:00 The Tiger Lillies Le Palais Hanté d'Edgar Allan Poe Maison de la Musique de Nanterre Nanterre France
2017-09-12 00:00:00-2017-09-12 00:00:00 Dada Masilo Dada Masilo's GISELLE La Bâtie, Festival de Genève Genève Swiss
2017-08-11 00:00:00-2017-08-11 00:00:00 Dada Masilo Dada Masilo's GISELLE Impulstanz, Volkstheater Vienne Autriche
2017-06-19 00:00:00-2017-06-20 00:00:002017-06-19 00:00:00 2017-06-20 00:00:00 Dada Masilo Dada Masilo's GISELLE Kupio Dance Festival Kupio Finland
2017-06-06 00:00:00-2017-06-07 00:00:002017-06-06 00:00:00 2017-06-07 00:00:00 The Tiger Lillies Le Palais Hanté d'Edgar Allan Poe Den Nationale Scene, Bergen International Festival Bergen Norvège
2017-05-04 00:00:00-2017-05-07 00:00:002017-05-04 00:00:00 2017-05-07 00:00:00 Dada Masilo Dada Masilo's GISELLE Dansens Hus Oslo Norvège
2017-04-26 00:00:00-2017-04-27 00:00:002017-04-26 00:00:00 2017-04-27 00:00:00 William Kentridge A Guided Tour of the Exhibition: For Soprano and Handbag Fondation Vuitton Paris France
2017-02-16 00:00:00-2017-06-18 00:00:002017-02-16 00:00:00 2017-06-18 00:00:00 William Kentridge A Guided Tour of the Exhibition: For Soprano and Handbag Louisiana Museum Copenhagen Danemark
2017-01-05 00:00:00-2017-01-07 00:00:002017-01-05 00:00:00 2017-01-07 00:00:00 The Tiger Lillies Ballad of Sexual Dependency Cité de la musique -Philharmonie de Paris Paris France
2016-11-24 00:00:00-2016-11-24 00:00:00 William Kentridge Winterreise Daejeon Arts Center Seoul Korée du sud
2016-11-22 00:00:00-2016-11-22 00:00:00 William Kentridge Winterreise Lotte Concert Hall Seoul Korée du sud
2016-11-14 00:00:00-2016-11-16 00:00:002016-11-14 00:00:00 2016-11-16 00:00:00 Handspring Puppet Co. Il Ritorno d'Ulisse Lincoln Center for the Preforming Arts New York USA
2016-11-14 00:00:00-2016-11-16 00:00:002016-11-14 00:00:00 2016-11-16 00:00:00 William Kentridge IL RITORNO D'ULISSE Lincoln Center for the Performing Arts New York USA
2016-10-09 00:00:00-2016-10-14 00:00:002016-10-09 00:00:00 2016-10-14 00:00:00 William Kentridge Paper Music The Print Room Londres Royaume-Uni
2016-10-09 00:00:00-2016-10-14 00:00:002016-10-09 00:00:00 2016-10-14 00:00:00 William Kentridge Paper Music Fondation Louis Vuitton Paris France
2016-10-04 00:00:00-2016-10-05 00:00:002016-10-04 00:00:00 2016-10-05 00:00:00 Brett Bailey MacBeth Théâtre de Cornouaille Quimper France
2016-09-21 00:00:00-2017-01-15 00:00:002016-09-21 00:00:00 2017-01-15 00:00:00 William Kentridge A Guided Tour of the Exhibition: For Soprano and Handbag White Chapel Gallery Londres Royaume-Uni
2016-09-15 00:00:00-2016-09-15 00:00:00 Hotel Pro Forma NEOARTIC The Royal Danish Theatre Copenhague Danemark
2016-05-28 00:00:00-2016-05-29 00:00:002016-05-28 00:00:00 2016-05-29 00:00:00 Handspring Puppet Co. Il Ritorno d'Ulisse Asia Culture Center, Asian Arts Theatre Gwangju Corée du Sud
2016-05-28 00:00:00-2016-05-29 00:00:002016-05-28 00:00:00 2016-05-29 00:00:00 William Kentridge IL RITORNO D'ULISSE Asia Culture Center Gwangju Republic of Korea
2016-05-21 00:00:00-2016-05-21 00:00:00 Andy Warhol Exposed : Songs for Unseen Warhol Films Philharmonie de Paris Paris France
2016-05-20 00:00:00-2016-07-16 00:00:002016-05-20 00:00:00 2016-07-16 00:00:00 William Kentridge A Guided Tour of the Exhibition: For Soprano and Handbag Martin Gropius Bau, Berliner Festspiele / Foreign Affairs Festival Berlin Allemagne
2016-05-18 00:00:00-2016-05-18 00:00:00 Andy Warhol Exposed : Songs for Unseen Warhol Films Le Lieu Unique Nantes France
2016-05-16 00:00:00-2016-05-16 00:00:00 Andy Warhol Exposed : Songs for Unseen Warhol Films Barbican Londres Royaume-Uni
2016-04-14 00:00:00-2016-04-14 00:00:00 William Kentridge Winterreise Palau de la Musica Barcelona Barcalone Espagne
2016-04-03 00:00:00-2016-04-06 00:00:002016-04-03 00:00:00 2016-04-06 00:00:00 William Kentridge Winterreise Opéra de Lille Lille France
2016-03-30 00:00:00-2016-03-30 00:00:00 William Kentridge Winterreise Philharmonie de Paris Paris France
2016-03-11 00:00:00-2016-03-13 00:00:002016-03-11 00:00:00 2016-03-13 00:00:00 William Kentridge Winterreise San Francisco Opera SanFrancisco US
2016-02-15 00:00:00-2016-02-21 00:00:002016-02-15 00:00:00 2016-02-21 00:00:00 William Kentridge Winterreise Fondation Calouste Gulbenkian Lisbonne Portugal
2016-02-03 00:00:00-2016-02-03 00:00:00 The Tiger Lillies *The Tiger Lillies in Concert Théâtre des Bergeries Noisy-Le-Sec France
2016-01-07 00:00:00-2016-01-09 00:00:002016-01-07 00:00:00 2016-01-09 00:00:00 William Kentridge Winterreise Sydney Festival Sydney Australie
2015-11-19 00:00:00-2015-11-20 00:00:002015-11-19 00:00:00 2015-11-20 00:00:00 William Kentridge Winterreise Les Théâtres de la Ville de Luxembourg Luxembourg Luxembourg
2015-09-17 00:00:00-2015-09-19 00:00:002015-09-17 00:00:00 2015-09-19 00:00:00 William Kentridge Winterreise Lotte Concert Hall Seoul Korée du sud
2015-09-04 00:00:00-2015-09-05 00:00:002015-09-04 00:00:00 2015-09-05 00:00:00 William Kentridge Winterreise Singapore International Festival of Arts Singapour Singapour
2015-07-07 00:00:00-2015-07-07 00:00:00 Andy Warhol *13 Most Beautiful... Songs for Andy Warhol Screen Tests Centre Pompidou-Metz Metz France
2015-06-27 00:00:00-2015-06-27 00:00:00 Hotel Pro Forma WAR SUM UP Macao Cultural Centre Macau Chine
2015-03-20 00:00:00-2015-03-22 00:00:002015-03-20 00:00:00 2015-03-22 00:00:00 Hotel Pro Forma WAR SUM UP National Performing Arts Center Taipei Taiwan
2014-11-29 00:00:00-2014-11-29 00:00:00 William Kentridge Paper Music Interferences - International Theatre Festival Cluj Roumanie
2014-11-26 00:00:00-2014-11-26 00:00:00 William Kentridge Winterreise NET Festival Moscow Moscou Russie
2014-11-11 00:00:00-2014-11-11 00:00:00 William Kentridge Winterreise Lincoln Center White Light Festival New York US
2014-11-06 00:00:00-2014-11-08 00:00:002014-11-06 00:00:00 2014-11-08 00:00:00 Andy Warhol Exposed : Songs for Unseen Warhol Films BAM New York USA
2014-11-05 00:00:00-2014-11-06 00:00:002014-11-05 00:00:00 2014-11-06 00:00:00 William Kentridge Paper Music DURUB AL TAWAYA Abu Dhabi UAE
2014-10-27 00:00:00-2014-10-27 00:00:00 William Kentridge Paper Music UBUNTU Festival, Carnegie Hall New York USA
2014-10-25 00:00:00-2014-10-25 00:00:00 Andy Warhol Exposed : Songs for Unseen Warhol Films Center for the Art of Performance at UCLA Los Angeles USA
2014-10-17 00:00:00-2014-10-17 00:00:00 Andy Warhol Exposed : Songs for Unseen Warhol Films The Carnegie Music Hall Pittsburgh USA
2014-09-19 00:00:00-2014-09-21 00:00:002014-09-19 00:00:00 2014-09-21 00:00:00 William Kentridge Winterreise KunstFestSpiele Herrenhausen Göttingen Allemagne
2014-09-11 00:00:00-2014-09-11 00:00:00 William Kentridge Paper Music FLAME, Florence Music Art Ensemble, Bargello Museum Florence Italie
2014-07-25 00:00:00-2014-07-26 00:00:002014-07-25 00:00:00 2014-07-26 00:00:00 William Kentridge Winterreise Holland Festival Amsterdam Pays Bas
2014-07-04 00:00:00-2014-07-17 00:00:002014-07-04 00:00:00 2014-07-17 00:00:00 William Kentridge Winterreise Festival d’Aix-en-Provence Aix-en-Provence France
2014-06-09 00:00:00-2014-06-15 00:00:002014-06-09 00:00:00 2014-06-15 00:00:00 William Kentridge Winterreise Wiener Festwochen Vienne Autriche
2014-03-22 00:00:00-2014-03-22 00:00:00 Hotel Pro Forma WAR SUM UP Theater aan de Parade Den Bosch Pays-Bas
2014-03-21 00:00:00-2014-03-21 00:00:00 Hotel Pro Forma WAR SUM UP Odeon de Spiegel Zwolle Pays-Bas
2014-03-20 00:00:00-2014-03-20 00:00:00 Hotel Pro Forma WAR SUM UP Lucent Danstheater Den Haag Pays-Bas
2013-11-24 00:00:00-2013-11-24 00:00:00 The Tiger Lillies Ballad of Sexual Dependency La Comédie de Clermont Clermont-Ferrand France
2013-11-01 00:00:00-2013-11-02 00:00:002013-11-01 00:00:00 2013-11-02 00:00:00 Hotel Pro Forma WAR SUM UP Next Wave Festival, Brooklyn Academy of Music New York USA
2013-09-11 00:00:00-2013-09-11 00:00:00 Hotel Pro Forma WAR SUM UP Transart, Teatro Comunale Bolzano Italie
2013-04-10 00:00:00-2013-04-10 00:00:00 Hotel Pro Forma WAR SUM UP Théâtre de Nîmes Nîmes France
2013-04-06 00:00:00-2013-04-07 00:00:002013-04-06 00:00:00 2013-04-07 00:00:00 Hotel Pro Forma WAR SUM UP Le Volcan Le Havre France
2013-02-16 00:00:00-2013-02-16 00:00:00 Andy Warhol *13 Most Beautiful... Songs for Andy Warhol Screen Tests The MAC Belfast Royaume-Uni
2012-11-23 00:00:00-2012-11-24 00:00:002012-11-23 00:00:00 2012-11-24 00:00:00 Hotel Pro Forma WAR SUM UP Materia Prima Festival Cracovie Pologne
2012-10-10 00:00:00-2012-10-10 00:00:00 Hotel Pro Forma WAR SUM UP Budapest Fall Festival, National Theatre Budapest Hongrie
2012-06-05 00:00:00-2012-06-05 00:00:00 Hotel Pro Forma WAR SUM UP Riga's Opera Festival Riga Latvia
2012-05-25 00:00:00-2012-05-25 00:00:00 Hotel Pro Forma WAR SUM UP Brighton Dome, Brighton Festival Brighton Royaume-Uni
2012-04-29 00:00:00-2012-04-29 00:00:00 Hotel Pro Forma WAR SUM UP Royal Danish Opera Copenhague Danemark
2012-03-03 00:00:00-2012-03-03 00:00:00 The Tiger Lillies Ballad of Sexual Dependency L'Arsenal Metz France
2011-11-11 00:00:00-2011-11-12 00:00:002011-11-11 00:00:00 2011-11-12 00:00:00 Hotel Pro Forma WAR SUM UP The Royal Danish Theatre Copenhague Danemark
2011-10-27 00:00:00-2011-10-28 00:00:002011-10-27 00:00:00 2011-10-28 00:00:00 Hotel Pro Forma WAR SUM UP Musikhuset Aarhus Aarhus Danemark
2011-10-25 00:00:00-2011-10-25 00:00:00 Hotel Pro Forma WAR SUM UP Odense Theatre Odense Belgique
2011-10-16 00:00:00-2011-10-17 00:00:002011-10-16 00:00:00 2011-10-17 00:00:00 Hotel Pro Forma WAR SUM UP Latvian National Opera Riga Lettonie
2011-09-08 00:00:00-2011-09-09 00:00:002011-09-08 00:00:00 2011-09-09 00:00:00 Hotel Pro Forma WAR SUM UP Oslo Contemporary Music Festival Oslo Norvège
2011-09-02 00:00:00-2011-09-03 00:00:002011-09-02 00:00:00 2011-09-03 00:00:00 Hotel Pro Forma WAR SUM UP Latvian National Opera Riga Lettonie
2011-04-30 00:00:00-2011-04-30 00:00:00 The Tiger Lillies Ballad of Sexual Dependency Blackheath Halls Londres Royaume-Uni
2011-04-22 00:00:00-2011-04-22 00:00:00 Andy Warhol *13 Most Beautiful... Songs for Andy Warhol Screen Tests Le Lieu Unique Nantes France
2011-04-19 00:00:00-2011-04-19 00:00:00 Andy Warhol *13 Most Beautiful... Songs for Andy Warhol Screen Tests Cité de la Musique Paris France
2010-10-07 00:00:00-2010-10-08 00:00:002010-10-07 00:00:00 2010-10-08 00:00:00 Andy Warhol *13 Most Beautiful... Songs for Andy Warhol Screen Tests La Filature - Scène nationale Mulhouse France
2010-10-05 00:00:00-2010-10-05 00:00:00 Andy Warhol *13 Most Beautiful... Songs for Andy Warhol Screen Tests Hellerau - European Center for the Arts Dresde Allemagne
2010-07-30 00:00:00-2010-07-30 00:00:00 Andy Warhol *13 Most Beautiful... Songs for Andy Warhol Screen Tests Barbican Londres Royaume-Uni
2010-05-22 00:00:00-2010-05-22 00:00:00 Andy Warhol *13 Most Beautiful... Songs for Andy Warhol Screen Tests Art Rock Saint-Brieuc France
2010-05-19 00:00:00-2010-05-20 00:00:002010-05-19 00:00:00 2010-05-20 00:00:00 Andy Warhol *13 Most Beautiful... Songs for Andy Warhol Screen Tests Bilbao Espagne
2010-04-19 00:00:00-2010-04-19 00:00:00 Andy Warhol *13 Most Beautiful... Songs for Andy Warhol Screen Tests Cité Internationale de la Musique Paris France
2010-03-06 00:00:00-2010-03-08 00:00:002010-03-06 00:00:00 2010-03-08 00:00:00 Andy Warhol *13 Most Beautiful... Songs for Andy Warhol Screen Tests WOMADelaide Adelaide Australie
2010-03-02 00:00:00-2010-03-06 00:00:002010-03-02 00:00:00 2010-03-06 00:00:00 Andy Warhol *13 Most Beautiful... Songs for Andy Warhol Screen Tests NZIAF New Zealand International Arts Festival Wellington Nouvelle Zélande
2010-02-27 00:00:00-2010-02-27 00:00:00 Andy Warhol *13 Most Beautiful... Songs for Andy Warhol Screen Tests SOH Concerthall Sydney Australie
2010-02-12 00:00:00-2010-02-14 00:00:002010-02-12 00:00:00 2010-02-14 00:00:00 Andy Warhol *13 Most Beautiful... Songs for Andy Warhol Screen Tests Perth International Arts Festival Perth Australie